createdAt,value
2022-11-27T00:01:36.320Z,93.28
2022-11-27T00:04:05.292Z,93.33
2022-11-27T00:06:34.928Z,92.85
2022-11-27T00:09:07.900Z,92.49
2022-11-27T00:11:39.287Z,92.69
2022-11-27T00:14:09.079Z,93.08
2022-11-27T00:16:37.236Z,93.00
2022-11-27T00:19:05.900Z,93.08
2022-11-27T00:21:36.507Z,92.72
2022-11-27T00:24:09.151Z,92.60
2022-11-27T00:26:39.072Z,92.71
2022-11-27T00:29:08.007Z,93.00
2022-11-27T00:31:38.217Z,93.33
2022-11-27T00:34:09.229Z,93.43
2022-11-27T00:36:38.666Z,93.50
2022-11-27T00:39:07.883Z,93.66
2022-11-27T00:41:36.366Z,93.36
2022-11-27T00:44:06.984Z,93.58
2022-11-27T00:46:36.195Z,93.58
2022-11-27T00:49:07.490Z,93.47
2022-11-27T00:51:36.342Z,93.73
2022-11-27T00:54:04.797Z,93.48
2022-11-27T00:56:36.287Z,93.41
2022-11-27T00:59:07.610Z,93.49
2022-11-27T01:01:38.829Z,93.22
2022-11-27T01:04:09.909Z,92.98
2022-11-27T01:06:38.525Z,92.78
2022-11-27T01:09:07.105Z,92.74
2022-11-27T01:11:36.866Z,92.63
2022-11-27T01:14:11.670Z,92.61
2022-11-27T01:16:43.094Z,92.30
2022-11-27T01:19:13.075Z,92.14
2022-11-27T01:21:42.309Z,92.09
2022-11-27T01:24:13.915Z,92.26
2022-11-27T01:26:42.108Z,92.29
2022-11-27T01:29:12.204Z,92.09
2022-11-27T01:31:40.519Z,91.62
2022-11-27T01:34:15.426Z,91.78
2022-11-27T01:36:44.253Z,90.99
2022-11-27T01:39:18.421Z,90.64
2022-11-27T01:41:49.354Z,90.59
2022-11-27T01:44:55.404Z,90.05
2022-11-27T01:47:40.183Z,89.77
2022-11-27T01:50:17.955Z,90.17
2022-11-27T01:52:54.247Z,90.36
2022-11-27T01:55:30.118Z,90.42
2022-11-27T01:58:03.208Z,90.59
2022-11-27T02:00:32.689Z,90.87
2022-11-27T02:03:01.149Z,91.23
2022-11-27T02:05:31.057Z,91.17
2022-11-27T02:08:04.472Z,90.94
2022-11-27T02:10:47.288Z,90.62
2022-11-27T02:13:31.526Z,89.72
2022-11-27T02:16:17.732Z,89.93
2022-11-27T02:18:59.792Z,90.32
2022-11-27T02:21:38.275Z,90.67
2022-11-27T02:24:50.600Z,90.80
2022-11-27T02:28:06.430Z,90.55
2022-11-27T02:30:44.803Z,90.67
2022-11-27T02:33:19.458Z,91.00
2022-11-27T02:35:56.961Z,91.36
2022-11-27T02:38:31.908Z,91.35
2022-11-27T02:41:08.126Z,91.39
2022-11-27T02:43:40.672Z,91.37
2022-11-27T02:46:13.931Z,91.37
2022-11-27T02:48:48.552Z,91.18
2022-11-27T02:51:23.481Z,90.81
2022-11-27T02:53:56.382Z,89.72
2022-11-27T02:56:29.596Z,89.66
2022-11-27T02:59:02.835Z,90.03
2022-11-27T03:01:41.464Z,89.80
2022-11-27T03:04:16.487Z,90.00
2022-11-27T03:06:51.914Z,90.41
2022-11-27T03:09:27.175Z,90.20
2022-11-27T03:11:55.834Z,89.50
2022-11-27T03:14:24.836Z,88.95
2022-11-27T03:17:07.172Z,88.65
2022-11-27T03:19:46.763Z,88.84
2022-11-27T03:22:16.325Z,88.04
2022-11-27T03:24:44.745Z,88.04
2022-11-27T03:27:16.496Z,87.86
2022-11-27T03:29:51.015Z,88.42
2022-11-27T03:32:21.388Z,88.56
2022-11-27T03:34:49.985Z,89.11
2022-11-27T03:37:18.522Z,89.66
2022-11-27T03:39:46.981Z,89.72
2022-11-27T03:42:25.061Z,89.80
2022-11-27T03:45:06.810Z,89.58
2022-11-27T03:47:59.872Z,88.89
2022-11-27T03:50:43.494Z,88.83
2022-11-27T03:53:23.954Z,88.81
2022-11-27T03:56:09.648Z,89.53
2022-11-27T03:58:46.009Z,89.96
2022-11-27T04:01:18.784Z,90.23
2022-11-27T04:03:48.416Z,89.81
2022-11-27T04:06:16.795Z,89.48
2022-11-27T04:08:47.442Z,89.83
2022-11-27T04:11:16.681Z,90.15
2022-11-27T04:13:44.883Z,90.67
2022-11-27T04:16:13.147Z,90.54
2022-11-27T04:18:41.278Z,89.69
2022-11-27T04:21:11.972Z,88.49
2022-11-27T04:23:40.783Z,88.11
2022-11-27T04:26:09.124Z,87.92
2022-11-27T04:28:37.477Z,87.72
2022-11-27T04:31:06.035Z,88.35
2022-11-27T04:33:34.414Z,89.25
2022-11-27T04:36:02.609Z,88.71
2022-11-27T04:38:32.078Z,88.20
2022-11-27T04:41:00.825Z,87.61
2022-11-27T04:43:29.448Z,88.05
2022-11-27T04:45:57.581Z,88.58
2022-11-27T04:48:25.706Z,88.90
2022-11-27T04:50:56.909Z,88.80
2022-11-27T04:53:25.005Z,88.99
2022-11-27T04:55:54.598Z,89.00
2022-11-27T04:58:22.727Z,88.65
2022-11-27T05:00:50.961Z,88.45
2022-11-27T05:03:19.200Z,88.69
2022-11-27T05:05:54.985Z,88.64
2022-11-27T05:08:23.086Z,88.24
2022-11-27T05:11:02.835Z,88.58
2022-11-27T05:13:31.462Z,88.97
2022-11-27T05:15:59.696Z,89.05
2022-11-27T05:18:28.167Z,89.31
2022-11-27T05:21:01.049Z,89.39
2022-11-27T05:23:30.465Z,89.20
2022-11-27T05:26:00.569Z,88.82
2022-11-27T05:28:28.831Z,89.00
2022-11-27T05:30:57.242Z,88.81
2022-11-27T05:33:25.463Z,88.78
2022-11-27T05:35:53.555Z,88.70
2022-11-27T05:38:21.663Z,89.04
2022-11-27T05:40:50.248Z,89.24
2022-11-27T05:43:19.706Z,88.84
2022-11-27T05:45:47.836Z,89.11
2022-11-27T05:48:16.223Z,88.87
2022-11-27T05:50:44.363Z,88.68
2022-11-27T05:53:12.454Z,88.08
2022-11-27T05:55:40.565Z,87.87
2022-11-27T05:58:09.408Z,87.85
2022-11-27T06:00:38.924Z,88.36
2022-11-27T06:03:07.201Z,87.94
2022-11-27T06:05:39.208Z,88.31
2022-11-27T06:08:07.409Z,88.70
2022-11-27T06:10:35.609Z,89.11
2022-11-27T06:13:03.743Z,89.04
2022-11-27T06:15:31.866Z,88.87
2022-11-27T06:18:01.335Z,88.79
2022-11-27T06:20:29.543Z,89.20
2022-11-27T06:22:57.741Z,88.25
2022-11-27T06:25:27.014Z,87.60
2022-11-27T06:27:55.144Z,87.45
2022-11-27T06:30:23.437Z,87.51
2022-11-27T06:32:51.622Z,88.30
2022-11-27T06:35:21.076Z,89.14
2022-11-27T06:37:49.238Z,89.41
2022-11-27T06:40:17.597Z,89.01
2022-11-27T06:42:45.741Z,89.13
2022-11-27T06:45:14.011Z,89.67
2022-11-27T06:47:42.109Z,89.61
2022-11-27T06:50:11.074Z,89.96
2022-11-27T06:52:40.917Z,90.09
2022-11-27T06:55:09.781Z,88.73
2022-11-27T06:57:37.891Z,87.85
2022-11-27T07:00:08.149Z,88.36
2022-11-27T07:02:36.354Z,88.47
2022-11-27T07:05:04.970Z,88.34
2022-11-27T07:07:33.162Z,88.28
2022-11-27T07:10:02.647Z,88.59
2022-11-27T07:12:30.753Z,89.10
2022-11-27T07:15:02.852Z,89.28
2022-11-27T07:17:32.251Z,89.34
2022-11-27T07:20:00.395Z,89.36
2022-11-27T07:22:28.487Z,89.20
2022-11-27T07:24:56.620Z,88.71
2022-11-27T07:27:26.589Z,87.55
2022-11-27T07:29:54.712Z,85.99
2022-11-27T07:32:22.843Z,85.36
2022-11-27T07:34:50.941Z,85.65
2022-11-27T07:37:19.084Z,84.94
2022-11-27T07:40:02.105Z,83.81
2022-11-27T07:42:39.890Z,84.57
2022-11-27T07:45:09.645Z,84.54
2022-11-27T07:47:38.000Z,84.16
2022-11-27T07:50:09.254Z,85.06
2022-11-27T07:52:41.903Z,85.12
2022-11-27T07:55:11.607Z,85.86
2022-11-27T07:57:42.353Z,85.53
2022-11-27T08:00:12.145Z,84.98
2022-11-27T08:02:40.332Z,83.74
2022-11-27T08:05:12.618Z,82.76
2022-11-27T08:07:41.799Z,82.67
2022-11-27T08:10:10.380Z,82.83
2022-11-27T08:12:39.950Z,82.64
2022-11-27T08:15:10.230Z,82.99
2022-11-27T08:17:38.502Z,83.15
2022-11-27T08:20:08.843Z,83.77
2022-11-27T08:22:37.257Z,83.28
2022-11-27T08:25:06.326Z,81.91
2022-11-27T08:27:36.246Z,81.72
2022-11-27T08:30:07.756Z,82.60
2022-11-27T08:32:39.271Z,83.15
2022-11-27T08:35:08.501Z,80.76
2022-11-27T08:37:37.395Z,79.03
2022-11-27T08:40:07.302Z,77.25
2022-11-27T08:42:35.501Z,75.17
2022-11-27T08:45:05.551Z,74.64
2022-11-27T08:47:33.738Z,74.98
2022-11-27T08:50:01.865Z,76.14
2022-11-27T08:52:30.121Z,76.68
2022-11-27T08:54:59.091Z,75.91
2022-11-27T08:57:28.392Z,75.85
2022-11-27T08:59:56.513Z,75.58
2022-11-27T09:02:25.921Z,76.73
2022-11-27T09:04:54.075Z,76.39
2022-11-27T09:07:22.231Z,78.01
2022-11-27T09:09:50.290Z,75.71
2022-11-27T09:12:18.367Z,75.41
2022-11-27T09:14:46.578Z,73.83
2022-11-27T09:17:14.707Z,74.00
2022-11-27T09:19:44.122Z,73.69
2022-11-27T09:22:12.358Z,73.64
2022-11-27T09:24:40.797Z,73.55
2022-11-27T09:27:10.187Z,73.91
2022-11-27T09:29:38.676Z,73.45
2022-11-27T09:32:07.170Z,73.99
2022-11-27T09:34:37.648Z,73.13
2022-11-27T09:37:07.246Z,73.21
2022-11-27T09:39:35.394Z,72.13
2022-11-27T09:42:09.590Z,71.19
2022-11-27T09:44:45.305Z,70.50
2022-11-27T09:47:22.375Z,69.23
2022-11-27T09:49:58.548Z,68.86
2022-11-27T09:52:40.765Z,69.27
2022-11-27T09:55:18.370Z,69.35
2022-11-27T09:58:00.474Z,69.96
2022-11-27T10:00:28.973Z,69.92
2022-11-27T10:02:57.276Z,69.92
2022-11-27T10:05:30.060Z,69.78
2022-11-27T10:08:32.787Z,69.14
2022-11-27T10:11:20.218Z,69.76
2022-11-27T10:14:18.571Z,69.23
2022-11-27T10:16:55.166Z,69.08
2022-11-27T10:19:36.914Z,69.64
2022-11-27T10:22:19.688Z,69.34
2022-11-27T10:25:08.985Z,69.41
2022-11-27T10:27:46.187Z,68.97
2022-11-27T10:30:19.059Z,68.92
2022-11-27T10:32:55.714Z,68.38
2022-11-27T10:35:27.397Z,67.90
2022-11-27T10:38:06.439Z,68.24
2022-11-27T10:40:43.674Z,67.73
2022-11-27T10:43:20.069Z,67.57
2022-11-27T10:45:54.373Z,67.60
2022-11-27T10:48:23.850Z,67.49
2022-11-27T10:50:52.450Z,66.98
2022-11-27T10:53:30.287Z,65.36
2022-11-27T10:56:22.632Z,64.97
2022-11-27T10:58:57.928Z,65.32
2022-11-27T11:01:30.603Z,65.11
2022-11-27T11:04:24.728Z,65.63
2022-11-27T11:06:56.274Z,65.02
2022-11-27T11:09:29.015Z,65.34
2022-11-27T11:12:09.209Z,65.31
2022-11-27T11:14:37.674Z,66.12
2022-11-27T11:17:18.547Z,66.07
2022-11-27T11:19:46.896Z,65.92
2022-11-27T11:22:17.925Z,66.56
2022-11-27T11:24:49.553Z,66.09
2022-11-27T11:27:24.040Z,66.36
2022-11-27T11:29:54.846Z,66.63
2022-11-27T11:32:29.183Z,65.01
2022-11-27T11:35:02.842Z,65.24
2022-11-27T11:37:34.465Z,64.57
2022-11-27T11:40:10.878Z,63.75
2022-11-27T11:42:55.560Z,64.11
2022-11-27T11:45:28.544Z,64.08
2022-11-27T11:48:00.919Z,64.01
2022-11-27T11:50:38.158Z,63.94
2022-11-27T11:53:16.371Z,63.54
2022-11-27T11:56:12.329Z,63.26
2022-11-27T11:58:55.720Z,63.27
2022-11-27T12:01:54.203Z,64.21
2022-11-27T12:05:02.879Z,63.50
2022-11-27T12:07:55.221Z,63.77
2022-11-27T12:10:31.304Z,63.96
2022-11-27T12:13:14.875Z,64.10
2022-11-27T12:15:52.702Z,64.06
2022-11-27T12:18:31.885Z,63.82
2022-11-27T12:21:16.049Z,63.71
2022-11-27T12:24:11.099Z,64.12
2022-11-27T12:27:01.127Z,64.46
2022-11-27T12:30:06.640Z,63.94
2022-11-27T12:33:22.085Z,63.60
2022-11-27T12:36:01.891Z,63.50
2022-11-27T12:38:58.898Z,62.31
2022-11-27T12:41:54.781Z,60.27
2022-11-27T12:44:34.817Z,59.45
2022-11-27T12:47:11.766Z,60.06
2022-11-27T12:49:47.049Z,60.50
2022-11-27T12:52:20.661Z,61.07
2022-11-27T12:54:55.671Z,62.15
2022-11-27T12:57:36.548Z,63.49
2022-11-27T13:00:08.698Z,63.56
2022-11-27T13:02:43.651Z,64.75
2022-11-27T13:05:21.108Z,65.81
2022-11-27T13:07:56.445Z,66.30
2022-11-27T13:10:31.185Z,66.53
2022-11-27T13:13:07.140Z,66.35
2022-11-27T13:15:43.971Z,65.95
2022-11-27T13:18:21.210Z,66.25
2022-11-27T13:20:53.415Z,66.26
2022-11-27T13:23:22.187Z,66.53
2022-11-27T13:25:56.282Z,66.26
2022-11-27T13:28:42.316Z,67.12
2022-11-27T13:31:21.349Z,67.47
2022-11-27T13:33:52.027Z,67.39
2022-11-27T13:36:26.628Z,66.89
2022-11-27T13:38:59.775Z,66.23
2022-11-27T13:41:35.895Z,66.50
2022-11-27T13:44:11.460Z,65.56
2022-11-27T13:46:49.371Z,65.51
2022-11-27T13:49:29.147Z,65.49
2022-11-27T13:52:11.748Z,64.69
2022-11-27T13:54:40.511Z,65.16
2022-11-27T13:57:18.122Z,65.52
2022-11-27T13:59:57.957Z,65.39
2022-11-27T14:02:27.044Z,65.32
2022-11-27T14:04:56.740Z,65.92
2022-11-27T14:07:41.113Z,66.20
2022-11-27T14:10:16.609Z,66.28
2022-11-27T14:12:55.853Z,66.76
2022-11-27T14:15:27.348Z,66.60
2022-11-27T14:18:08.482Z,66.03
2022-11-27T14:20:48.012Z,66.70
2022-11-27T14:23:29.563Z,66.46
2022-11-27T14:26:11.862Z,66.36
2022-11-27T14:28:46.116Z,66.78
2022-11-27T14:31:29.875Z,67.13
2022-11-27T14:34:16.871Z,66.56
2022-11-27T14:36:46.478Z,67.07
2022-11-27T14:39:26.427Z,67.82
2022-11-27T14:42:02.235Z,68.46
2022-11-27T14:44:30.712Z,69.06
2022-11-27T14:47:03.402Z,69.38
2022-11-27T14:49:34.103Z,69.09
2022-11-27T14:52:07.081Z,69.41
2022-11-27T14:54:40.167Z,70.03
2022-11-27T14:57:16.051Z,70.41
2022-11-27T14:59:44.181Z,69.81
2022-11-27T15:02:23.313Z,70.34
2022-11-27T15:05:05.754Z,71.01
2022-11-27T15:07:45.304Z,71.52
2022-11-27T15:10:33.413Z,71.89
2022-11-27T15:13:03.840Z,72.27
2022-11-27T15:15:44.207Z,72.37
2022-11-27T15:18:23.939Z,72.43
2022-11-27T15:20:53.806Z,72.11
2022-11-27T15:23:27.730Z,72.00
2022-11-27T15:26:15.814Z,72.11
2022-11-27T15:28:53.311Z,72.11
2022-11-27T15:31:29.708Z,72.19
2022-11-27T15:34:05.453Z,72.13
2022-11-27T15:36:40.956Z,71.32
2022-11-27T15:39:23.094Z,70.97
2022-11-27T15:41:58.580Z,71.25
2022-11-27T15:44:29.091Z,71.53
2022-11-27T15:47:01.243Z,71.44
2022-11-27T15:49:30.351Z,70.85
2022-11-27T15:51:59.141Z,70.58
2022-11-27T15:54:27.296Z,70.82
2022-11-27T15:56:56.735Z,69.07
2022-11-27T15:59:27.199Z,69.17
2022-11-27T16:01:55.946Z,69.69
2022-11-27T16:04:24.082Z,68.83
2022-11-27T16:06:52.128Z,69.26
2022-11-27T16:09:20.806Z,69.38
2022-11-27T16:11:49.232Z,69.95
2022-11-27T16:14:18.641Z,70.50
2022-11-27T16:16:46.948Z,70.53
2022-11-27T16:19:15.015Z,70.76
2022-11-27T16:21:43.665Z,71.05
2022-11-27T16:24:15.060Z,71.35
2022-11-27T16:26:43.898Z,71.30
2022-11-27T16:29:12.438Z,71.19
2022-11-27T16:31:42.272Z,71.46
2022-11-27T16:34:10.512Z,71.00
2022-11-27T16:36:41.370Z,70.55
2022-11-27T16:39:09.459Z,70.92
2022-11-27T16:41:37.567Z,70.66
2022-11-27T16:44:13.185Z,70.92
2022-11-27T16:46:44.386Z,71.43
2022-11-27T16:49:14.821Z,71.48
2022-11-27T16:51:43.784Z,71.74
2022-11-27T16:54:14.346Z,71.99
2022-11-27T16:56:42.725Z,72.18
2022-11-27T16:59:13.500Z,72.59
2022-11-27T17:01:44.118Z,72.67
2022-11-27T17:04:21.049Z,72.62
2022-11-27T17:06:50.879Z,72.81
2022-11-27T17:09:20.360Z,73.00
2022-11-27T17:11:49.421Z,73.10
2022-11-27T17:14:20.053Z,73.37
2022-11-27T17:16:49.496Z,73.42
2022-11-27T17:19:18.311Z,73.78
2022-11-27T17:21:46.994Z,73.95
2022-11-27T17:24:17.210Z,74.17
2022-11-27T17:26:47.079Z,74.40
2022-11-27T17:29:18.581Z,74.71
2022-11-27T17:31:46.879Z,74.80
2022-11-27T17:34:18.682Z,75.13
2022-11-27T17:36:50.873Z,75.21
2022-11-27T17:39:18.949Z,75.19
2022-11-27T17:41:46.986Z,75.61
2022-11-27T17:44:15.307Z,75.69
2022-11-27T17:46:47.929Z,75.52
2022-11-27T17:49:19.282Z,75.42
2022-11-27T17:51:47.323Z,75.81
2022-11-27T17:54:15.472Z,75.86
2022-11-27T17:56:43.508Z,76.08
2022-11-27T17:59:11.639Z,76.17
2022-11-27T18:01:39.791Z,76.27
2022-11-27T18:04:10.251Z,76.53
2022-11-27T18:06:39.717Z,77.14
2022-11-27T18:09:07.866Z,77.46
2022-11-27T18:11:35.906Z,77.79
2022-11-27T18:14:04.762Z,78.22
2022-11-27T18:16:36.373Z,78.87
2022-11-27T18:19:07.657Z,79.16
2022-11-27T18:21:36.965Z,79.44
2022-11-27T18:24:23.083Z,79.63
2022-11-27T18:27:08.770Z,79.79
2022-11-27T18:29:38.259Z,80.08
2022-11-27T18:32:07.421Z,79.87
2022-11-27T18:34:36.388Z,79.92
2022-11-27T18:37:05.581Z,78.94
2022-11-27T18:39:36.218Z,78.12
2022-11-27T18:42:05.735Z,78.43
2022-11-27T18:44:39.502Z,78.68
2022-11-27T18:47:11.130Z,78.96
2022-11-27T18:49:40.650Z,79.24
2022-11-27T18:52:10.362Z,79.22
2022-11-27T18:54:39.786Z,79.10
2022-11-27T18:57:07.967Z,78.25
2022-11-27T18:59:36.124Z,77.76
2022-11-27T19:02:05.364Z,77.77
2022-11-27T19:04:37.348Z,77.16
2022-11-27T19:07:05.614Z,77.66
2022-11-27T19:09:34.669Z,77.63
2022-11-27T19:12:04.309Z,77.83
2022-11-27T19:14:32.438Z,77.16
2022-11-27T19:17:00.681Z,77.38
2022-11-27T19:22:20.539Z,78.22
2022-11-27T19:24:49.132Z,78.04
2022-11-27T19:27:18.597Z,78.52
2022-11-27T19:29:46.669Z,78.76
2022-11-27T19:32:14.729Z,78.87
2022-11-27T19:34:42.988Z,78.77
2022-11-27T19:37:11.266Z,78.96
2022-11-27T19:39:39.321Z,79.41
2022-11-27T19:42:07.675Z,79.56
2022-11-27T19:44:37.374Z,79.67
2022-11-27T19:47:06.550Z,80.19
2022-11-27T19:49:34.610Z,80.19
2022-11-27T19:52:02.681Z,80.38
2022-11-27T19:54:30.722Z,80.51
2022-11-27T19:56:58.776Z,80.39
2022-11-27T19:59:27.367Z,79.90
2022-11-27T20:01:57.424Z,79.89
2022-11-27T20:04:25.614Z,79.49
2022-11-27T20:06:54.061Z,79.42
2022-11-27T20:09:22.154Z,79.70
2022-11-27T20:11:50.255Z,79.80
2022-11-27T20:14:19.338Z,79.62
2022-11-27T20:16:47.447Z,79.10
2022-11-27T20:19:16.977Z,78.64
2022-11-27T20:21:46.606Z,78.04
2022-11-27T20:24:15.755Z,78.16
2022-11-27T20:26:44.214Z,78.50
2022-11-27T20:29:12.779Z,78.78
2022-11-27T20:31:44.601Z,78.73
2022-11-27T20:34:20.925Z,78.67
2022-11-27T20:36:50.336Z,78.87
2022-11-27T20:39:21.654Z,79.05
2022-11-27T20:41:51.767Z,79.06
2022-11-27T20:44:20.386Z,78.94
2022-11-27T20:46:49.125Z,78.63
2022-11-27T20:49:20.474Z,78.28
2022-11-27T20:51:50.520Z,78.44
2022-11-27T20:54:19.225Z,78.17
2022-11-27T20:56:47.850Z,78.29
2022-11-27T20:59:15.982Z,78.45
2022-11-27T21:01:44.318Z,77.52
2022-11-27T21:04:23.067Z,77.50
2022-11-27T21:06:52.367Z,77.62
2022-11-27T21:09:21.885Z,77.62
2022-11-27T21:11:50.372Z,77.30
2022-11-27T21:14:19.449Z,77.54
2022-11-27T21:16:49.912Z,77.91
2022-11-27T21:19:22.440Z,78.11
2022-11-27T21:21:53.233Z,78.01
2022-11-27T21:24:27.329Z,78.11
2022-11-27T21:26:55.516Z,78.16
2022-11-27T21:29:25.825Z,78.10
2022-11-27T21:31:55.230Z,78.20
2022-11-27T21:34:26.176Z,78.54
2022-11-27T21:36:54.476Z,78.89
2022-11-27T21:39:23.750Z,78.92
2022-11-27T21:41:55.720Z,79.23
2022-11-27T21:44:25.816Z,79.05
2022-11-27T21:46:54.135Z,79.33
2022-11-27T21:49:24.123Z,79.03
2022-11-27T21:51:53.508Z,78.43
2022-11-27T21:54:23.090Z,78.45
2022-11-27T21:56:52.934Z,78.84
2022-11-27T21:59:21.470Z,78.96
2022-11-27T22:01:49.799Z,78.96
2022-11-27T22:04:18.506Z,78.71
2022-11-27T22:06:48.408Z,78.38
2022-11-27T22:09:16.711Z,78.36
2022-11-27T22:11:46.443Z,77.87
2022-11-27T22:14:17.111Z,77.36
2022-11-27T22:16:46.958Z,77.50
2022-11-27T22:19:15.540Z,77.58
2022-11-27T22:21:44.999Z,77.04
2022-11-27T22:24:19.305Z,76.56
2022-11-27T22:26:48.844Z,76.36
2022-11-27T22:29:17.100Z,75.86
2022-11-27T22:31:45.491Z,75.49
2022-11-27T22:34:13.659Z,75.35
2022-11-27T22:36:41.906Z,75.31
2022-11-27T22:39:10.475Z,75.26
2022-11-27T22:41:41.903Z,75.51
2022-11-27T22:44:14.611Z,75.86
2022-11-27T22:46:43.886Z,75.84
2022-11-27T22:49:14.195Z,76.16
2022-11-27T22:51:43.167Z,76.39
2022-11-27T22:54:17.561Z,75.79
2022-11-27T22:56:47.974Z,75.82
2022-11-27T22:59:34.101Z,76.14
2022-11-27T23:02:03.668Z,76.51
2022-11-27T23:04:31.888Z,76.32
2022-11-27T23:07:00.620Z,76.08
2022-11-27T23:09:28.798Z,75.75
2022-11-27T23:11:58.655Z,76.34
2022-11-27T23:14:27.451Z,76.44
2022-11-27T23:16:55.675Z,75.97
2022-11-27T23:19:24.050Z,77.05
2022-11-27T23:21:52.238Z,77.61
2022-11-27T23:24:20.537Z,78.11
2022-11-27T23:26:48.736Z,77.91
2022-11-27T23:29:18.269Z,78.23
2022-11-27T23:31:46.468Z,78.03
2022-11-27T23:34:16.393Z,78.14
2022-11-27T23:36:45.095Z,78.50
2022-11-27T23:39:14.775Z,78.59
2022-11-27T23:41:43.469Z,78.54
2022-11-27T23:44:11.625Z,78.27
2022-11-27T23:46:41.363Z,77.86
2022-11-27T23:49:09.808Z,77.89
2022-11-27T23:51:38.056Z,78.19
2022-11-27T23:54:10.372Z,78.50
2022-11-27T23:56:39.575Z,78.66
2022-11-27T23:59:08.094Z,78.48
